sensor_id;sensor_type;location;lat;lon;timestamp;P1;durP1;ratioP1;P2;durP2;ratioP2
64907;SDS011;69061;52.236;5.188;2023-07-22T00:01:27;18.73;;;10.80;;
64907;SDS011;69061;52.236;5.188;2023-07-22T00:03:54;17.35;;;9.25;;
64907;SDS011;69061;52.236;5.188;2023-07-22T00:06:21;23.42;;;12.82;;
64907;SDS011;69061;52.236;5.188;2023-07-22T00:08:49;24.08;;;12.32;;
64907;SDS011;69061;52.236;5.188;2023-07-22T00:11:18;20.38;;;13.07;;
64907;SDS011;69061;52.236;5.188;2023-07-22T00:13:45;25.70;;;14.05;;
64907;SDS011;69061;52.236;5.188;2023-07-22T00:16:13;19.63;;;12.43;;
64907;SDS011;69061;52.236;5.188;2023-07-22T00:18:40;24.05;;;14.57;;
64907;SDS011;69061;52.236;5.188;2023-07-22T00:21:08;25.55;;;14.43;;
64907;SDS011;69061;52.236;5.188;2023-07-22T00:23:35;22.33;;;12.98;;
64907;SDS011;69061;52.236;5.188;2023-07-22T00:26:02;27.77;;;14.45;;
64907;SDS011;69061;52.236;5.188;2023-07-22T00:28:33;22.58;;;13.85;;
64907;SDS011;69061;52.236;5.188;2023-07-22T00:31:01;25.25;;;14.25;;
64907;SDS011;69061;52.236;5.188;2023-07-22T00:33:29;27.77;;;14.75;;
64907;SDS011;69061;52.236;5.188;2023-07-22T00:35:56;27.27;;;15.77;;
64907;SDS011;69061;52.236;5.188;2023-07-22T00:38:23;25.80;;;14.73;;
64907;SDS011;69061;52.236;5.188;2023-07-22T00:40:50;20.30;;;12.85;;
64907;SDS011;69061;52.236;5.188;2023-07-22T00:43:17;27.63;;;16.17;;
64907;SDS011;69061;52.236;5.188;2023-07-22T00:45:48;26.73;;;16.42;;
64907;SDS011;69061;52.236;5.188;2023-07-22T00:48:15;29.65;;;14.95;;
64907;SDS011;69061;52.236;5.188;2023-07-22T00:50:44;31.95;;;17.90;;
64907;SDS011;69061;52.236;5.188;2023-07-22T00:53:11;25.85;;;15.30;;
64907;SDS011;69061;52.236;5.188;2023-07-22T00:55:38;28.17;;;16.48;;
64907;SDS011;69061;52.236;5.188;2023-07-22T00:58:08;31.58;;;16.90;;
64907;SDS011;69061;52.236;5.188;2023-07-22T01:00:35;27.63;;;15.90;;
64907;SDS011;69061;52.236;5.188;2023-07-22T01:03:03;32.90;;;17.55;;
64907;SDS011;69061;52.236;5.188;2023-07-22T01:05:31;31.42;;;16.45;;
64907;SDS011;69061;52.236;5.188;2023-07-22T01:07:59;33.75;;;19.70;;
64907;SDS011;69061;52.236;5.188;2023-07-22T01:10:26;27.88;;;16.73;;
64907;SDS011;69061;52.236;5.188;2023-07-22T01:12:53;29.30;;;17.08;;
64907;SDS011;69061;52.236;5.188;2023-07-22T01:15:23;39.97;;;20.05;;
64907;SDS011;69061;52.236;5.188;2023-07-22T01:17:50;31.38;;;16.85;;
64907;SDS011;69061;52.236;5.188;2023-07-22T01:20:19;28.10;;;15.07;;
64907;SDS011;69061;52.236;5.188;2023-07-22T01:22:51;27.77;;;15.82;;
64907;SDS011;69061;52.236;5.188;2023-07-22T01:25:18;31.77;;;17.85;;
64907;SDS011;69061;52.236;5.188;2023-07-22T01:27:46;33.67;;;18.95;;
64907;SDS011;69061;52.236;5.188;2023-07-22T01:30:17;32.47;;;19.38;;
64907;SDS011;69061;52.236;5.188;2023-07-22T01:32:44;35.35;;;19.30;;
64907;SDS011;69061;52.236;5.188;2023-07-22T01:35:11;34.13;;;18.50;;
64907;SDS011;69061;52.236;5.188;2023-07-22T01:37:38;30.65;;;18.13;;
64907;SDS011;69061;52.236;5.188;2023-07-22T01:40:08;30.02;;;17.15;;
64907;SDS011;69061;52.236;5.188;2023-07-22T01:42:37;33.38;;;20.25;;
64907;SDS011;69061;52.236;5.188;2023-07-22T01:45:05;30.35;;;17.70;;
64907;SDS011;69061;52.236;5.188;2023-07-22T01:47:33;31.02;;;17.80;;
64907;SDS011;69061;52.236;5.188;2023-07-22T01:50:01;35.42;;;19.75;;
64907;SDS011;69061;52.236;5.188;2023-07-22T01:52:28;40.15;;;21.77;;
64907;SDS011;69061;52.236;5.188;2023-07-22T01:54:55;37.30;;;20.60;;
64907;SDS011;69061;52.236;5.188;2023-07-22T01:57:23;34.65;;;20.02;;
64907;SDS011;69061;52.236;5.188;2023-07-22T01:59:50;35.33;;;18.77;;
64907;SDS011;69061;52.236;5.188;2023-07-22T02:02:18;36.97;;;20.58;;
64907;SDS011;69061;52.236;5.188;2023-07-22T02:04:45;35.67;;;20.27;;
64907;SDS011;69061;52.236;5.188;2023-07-22T02:07:12;31.38;;;17.38;;
64907;SDS011;69061;52.236;5.188;2023-07-22T02:09:40;32.05;;;18.38;;
64907;SDS011;69061;52.236;5.188;2023-07-22T02:12:07;29.30;;;16.63;;
64907;SDS011;69061;52.236;5.188;2023-07-22T02:14:36;29.80;;;16.90;;
64907;SDS011;69061;52.236;5.188;2023-07-22T02:17:03;32.85;;;19.55;;
64907;SDS011;69061;52.236;5.188;2023-07-22T02:19:34;32.78;;;19.20;;
64907;SDS011;69061;52.236;5.188;2023-07-22T02:22:01;31.50;;;18.05;;
64907;SDS011;69061;52.236;5.188;2023-07-22T02:24:28;35.40;;;19.67;;
64907;SDS011;69061;52.236;5.188;2023-07-22T02:26:55;33.85;;;18.38;;
64907;SDS011;69061;52.236;5.188;2023-07-22T02:29:21;28.75;;;17.23;;
64907;SDS011;69061;52.236;5.188;2023-07-22T02:31:49;39.75;;;20.52;;
64907;SDS011;69061;52.236;5.188;2023-07-22T02:34:16;33.08;;;18.38;;
64907;SDS011;69061;52.236;5.188;2023-07-22T02:36:43;30.95;;;19.65;;
64907;SDS011;69061;52.236;5.188;2023-07-22T02:39:10;33.00;;;18.52;;
64907;SDS011;69061;52.236;5.188;2023-07-22T02:41:37;42.00;;;21.63;;
64907;SDS011;69061;52.236;5.188;2023-07-22T02:44:04;36.38;;;20.88;;
64907;SDS011;69061;52.236;5.188;2023-07-22T02:46:31;34.25;;;19.98;;
64907;SDS011;69061;52.236;5.188;2023-07-22T02:48:59;31.23;;;18.33;;
64907;SDS011;69061;52.236;5.188;2023-07-22T02:51:26;39.08;;;21.05;;
64907;SDS011;69061;52.236;5.188;2023-07-22T02:53:54;31.25;;;19.00;;
64907;SDS011;69061;52.236;5.188;2023-07-22T02:56:21;35.17;;;20.33;;
64907;SDS011;69061;52.236;5.188;2023-07-22T02:58:48;32.83;;;19.35;;
64907;SDS011;69061;52.236;5.188;2023-07-22T03:01:16;30.45;;;18.52;;
64907;SDS011;69061;52.236;5.188;2023-07-22T03:03:43;27.38;;;15.90;;
64907;SDS011;69061;52.236;5.188;2023-07-22T03:06:11;28.80;;;17.52;;
64907;SDS011;69061;52.236;5.188;2023-07-22T03:08:39;29.70;;;17.50;;
64907;SDS011;69061;52.236;5.188;2023-07-22T03:11:06;31.35;;;17.00;;
64907;SDS011;69061;52.236;5.188;2023-07-22T03:13:33;30.92;;;17.50;;
64907;SDS011;69061;52.236;5.188;2023-07-22T03:16:00;31.92;;;19.20;;
64907;SDS011;69061;52.236;5.188;2023-07-22T03:18:29;30.50;;;18.27;;
64907;SDS011;69061;52.236;5.188;2023-07-22T03:20:56;32.38;;;17.83;;
64907;SDS011;69061;52.236;5.188;2023-07-22T03:23:24;33.40;;;19.95;;
64907;SDS011;69061;52.236;5.188;2023-07-22T03:25:51;30.75;;;17.65;;
64907;SDS011;69061;52.236;5.188;2023-07-22T03:28:18;31.23;;;19.33;;
64907;SDS011;69061;52.236;5.188;2023-07-22T03:30:45;33.05;;;19.63;;
64907;SDS011;69061;52.236;5.188;2023-07-22T03:33:11;32.15;;;18.27;;
64907;SDS011;69061;52.236;5.188;2023-07-22T03:35:39;32.80;;;18.73;;
64907;SDS011;69061;52.236;5.188;2023-07-22T03:38:06;30.85;;;18.75;;
64907;SDS011;69061;52.236;5.188;2023-07-22T03:40:35;32.97;;;18.35;;
64907;SDS011;69061;52.236;5.188;2023-07-22T03:43:02;35.45;;;20.20;;
64907;SDS011;69061;52.236;5.188;2023-07-22T03:45:29;27.25;;;16.40;;
64907;SDS011;69061;52.236;5.188;2023-07-22T03:47:57;36.10;;;17.13;;
64907;SDS011;69061;52.236;5.188;2023-07-22T03:50:25;30.55;;;17.73;;
64907;SDS011;69061;52.236;5.188;2023-07-22T03:52:53;32.55;;;18.02;;
64907;SDS011;69061;52.236;5.188;2023-07-22T03:55:20;32.20;;;19.98;;
64907;SDS011;69061;52.236;5.188;2023-07-22T03:57:48;26.08;;;17.23;;
64907;SDS011;69061;52.236;5.188;2023-07-22T04:00:16;27.15;;;14.80;;
64907;SDS011;69061;52.236;5.188;2023-07-22T04:02:44;32.13;;;18.55;;
64907;SDS011;69061;52.236;5.188;2023-07-22T04:05:11;27.48;;;17.48;;
64907;SDS011;69061;52.236;5.188;2023-07-22T04:07:38;24.45;;;15.45;;
64907;SDS011;69061;52.236;5.188;2023-07-22T04:10:05;24.55;;;14.18;;
64907;SDS011;69061;52.236;5.188;2023-07-22T04:12:33;24.92;;;14.02;;
64907;SDS011;69061;52.236;5.188;2023-07-22T04:15:01;27.20;;;15.60;;
64907;SDS011;69061;52.236;5.188;2023-07-22T04:17:28;23.63;;;13.60;;
64907;SDS011;69061;52.236;5.188;2023-07-22T04:19:55;29.92;;;15.10;;
64907;SDS011;69061;52.236;5.188;2023-07-22T04:22:22;27.23;;;14.02;;
64907;SDS011;69061;52.236;5.188;2023-07-22T04:24:49;22.55;;;13.63;;
64907;SDS011;69061;52.236;5.188;2023-07-22T04:27:16;23.15;;;11.90;;
64907;SDS011;69061;52.236;5.188;2023-07-22T04:29:43;23.55;;;13.52;;
64907;SDS011;69061;52.236;5.188;2023-07-22T04:32:13;22.88;;;12.98;;
64907;SDS011;69061;52.236;5.188;2023-07-22T04:34:39;18.88;;;11.80;;
64907;SDS011;69061;52.236;5.188;2023-07-22T04:37:06;24.85;;;12.77;;
64907;SDS011;69061;52.236;5.188;2023-07-22T04:39:33;20.83;;;13.65;;
64907;SDS011;69061;52.236;5.188;2023-07-22T04:42:00;18.92;;;11.55;;
64907;SDS011;69061;52.236;5.188;2023-07-22T04:44:28;21.23;;;11.43;;
64907;SDS011;69061;52.236;5.188;2023-07-22T04:46:55;21.23;;;11.00;;
64907;SDS011;69061;52.236;5.188;2023-07-22T04:49:24;20.35;;;11.90;;
64907;SDS011;69061;52.236;5.188;2023-07-22T04:51:51;23.05;;;11.57;;
64907;SDS011;69061;52.236;5.188;2023-07-22T04:54:17;22.38;;;11.65;;
64907;SDS011;69061;52.236;5.188;2023-07-22T04:56:44;19.05;;;10.30;;
64907;SDS011;69061;52.236;5.188;2023-07-22T04:59:11;25.77;;;11.32;;
64907;SDS011;69061;52.236;5.188;2023-07-22T05:01:39;21.52;;;10.15;;
64907;SDS011;69061;52.236;5.188;2023-07-22T05:04:06;20.83;;;11.77;;
64907;SDS011;69061;52.236;5.188;2023-07-22T05:06:35;20.55;;;10.35;;
64907;SDS011;69061;52.236;5.188;2023-07-22T05:09:02;23.27;;;10.93;;
64907;SDS011;69061;52.236;5.188;2023-07-22T05:11:30;24.40;;;11.50;;
64907;SDS011;69061;52.236;5.188;2023-07-22T05:13:58;21.60;;;10.90;;
64907;SDS011;69061;52.236;5.188;2023-07-22T05:16:25;21.30;;;10.63;;
64907;SDS011;69061;52.236;5.188;2023-07-22T05:18:52;22.80;;;13.20;;
64907;SDS011;69061;52.236;5.188;2023-07-22T05:21:19;26.70;;;13.00;;
64907;SDS011;69061;52.236;5.188;2023-07-22T05:23:47;19.88;;;11.55;;
64907;SDS011;69061;52.236;5.188;2023-07-22T05:26:14;24.20;;;12.30;;
64907;SDS011;69061;52.236;5.188;2023-07-22T05:28:42;29.63;;;15.13;;
64907;SDS011;69061;52.236;5.188;2023-07-22T05:31:09;23.92;;;11.73;;
64907;SDS011;69061;52.236;5.188;2023-07-22T05:33:37;25.80;;;13.15;;
64907;SDS011;69061;52.236;5.188;2023-07-22T05:36:04;25.83;;;14.20;;
64907;SDS011;69061;52.236;5.188;2023-07-22T05:38:31;24.25;;;13.57;;
64907;SDS011;69061;52.236;5.188;2023-07-22T05:40:59;25.80;;;13.80;;
64907;SDS011;69061;52.236;5.188;2023-07-22T05:43:26;31.48;;;16.35;;
64907;SDS011;69061;52.236;5.188;2023-07-22T05:45:53;25.88;;;15.48;;
64907;SDS011;69061;52.236;5.188;2023-07-22T05:48:21;24.92;;;14.00;;
64907;SDS011;69061;52.236;5.188;2023-07-22T05:50:47;28.48;;;14.40;;
64907;SDS011;69061;52.236;5.188;2023-07-22T05:53:15;26.27;;;14.90;;
64907;SDS011;69061;52.236;5.188;2023-07-22T05:55:42;28.73;;;15.25;;
64907;SDS011;69061;52.236;5.188;2023-07-22T05:58:16;32.05;;;16.55;;
64907;SDS011;69061;52.236;5.188;2023-07-22T06:00:43;28.75;;;15.68;;
64907;SDS011;69061;52.236;5.188;2023-07-22T06:03:10;33.05;;;16.80;;
64907;SDS011;69061;52.236;5.188;2023-07-22T06:05:38;34.58;;;18.30;;
64907;SDS011;69061;52.236;5.188;2023-07-22T06:08:06;34.92;;;16.95;;
64907;SDS011;69061;52.236;5.188;2023-07-22T06:10:33;35.88;;;18.00;;
64907;SDS011;69061;52.236;5.188;2023-07-22T06:13:02;30.45;;;16.63;;
64907;SDS011;69061;52.236;5.188;2023-07-22T06:15:31;43.67;;;18.35;;
64907;SDS011;69061;52.236;5.188;2023-07-22T06:17:58;32.88;;;17.33;;
64907;SDS011;69061;52.236;5.188;2023-07-22T06:20:25;36.85;;;18.52;;
64907;SDS011;69061;52.236;5.188;2023-07-22T06:22:52;36.97;;;19.95;;
64907;SDS011;69061;52.236;5.188;2023-07-22T06:25:19;40.38;;;20.02;;
64907;SDS011;69061;52.236;5.188;2023-07-22T06:27:46;35.03;;;17.95;;
64907;SDS011;69061;52.236;5.188;2023-07-22T06:30:13;36.88;;;18.98;;
64907;SDS011;69061;52.236;5.188;2023-07-22T06:32:42;37.13;;;18.38;;
64907;SDS011;69061;52.236;5.188;2023-07-22T06:35:09;35.90;;;20.10;;
64907;SDS011;69061;52.236;5.188;2023-07-22T06:37:37;46.60;;;21.90;;
64907;SDS011;69061;52.236;5.188;2023-07-22T06:40:04;38.28;;;19.27;;
64907;SDS011;69061;52.236;5.188;2023-07-22T06:42:32;43.03;;;21.77;;
64907;SDS011;69061;52.236;5.188;2023-07-22T06:45:00;35.90;;;19.83;;
64907;SDS011;69061;52.236;5.188;2023-07-22T06:47:27;40.72;;;20.63;;
64907;SDS011;69061;52.236;5.188;2023-07-22T06:49:56;40.17;;;22.02;;
64907;SDS011;69061;52.236;5.188;2023-07-22T06:52:25;39.95;;;19.52;;
64907;SDS011;69061;52.236;5.188;2023-07-22T06:54:52;46.05;;;21.92;;
64907;SDS011;69061;52.236;5.188;2023-07-22T06:57:19;33.47;;;20.60;;
64907;SDS011;69061;52.236;5.188;2023-07-22T06:59:46;37.03;;;18.80;;
64907;SDS011;69061;52.236;5.188;2023-07-22T07:02:16;38.28;;;19.48;;
64907;SDS011;69061;52.236;5.188;2023-07-22T07:04:49;34.60;;;18.23;;
64907;SDS011;69061;52.236;5.188;2023-07-22T07:07:17;30.35;;;15.95;;
64907;SDS011;69061;52.236;5.188;2023-07-22T07:09:44;41.30;;;20.45;;
64907;SDS011;69061;52.236;5.188;2023-07-22T07:12:11;41.08;;;22.05;;
64907;SDS011;69061;52.236;5.188;2023-07-22T07:14:38;36.78;;;20.42;;
64907;SDS011;69061;52.236;5.188;2023-07-22T07:17:05;29.98;;;17.92;;
64907;SDS011;69061;52.236;5.188;2023-07-22T07:19:32;34.42;;;18.98;;
64907;SDS011;69061;52.236;5.188;2023-07-22T07:21:59;28.77;;;16.35;;
64907;SDS011;69061;52.236;5.188;2023-07-22T07:24:27;32.40;;;20.20;;
64907;SDS011;69061;52.236;5.188;2023-07-22T07:26:54;30.77;;;18.15;;
64907;SDS011;69061;52.236;5.188;2023-07-22T07:29:21;43.10;;;19.13;;
64907;SDS011;69061;52.236;5.188;2023-07-22T07:31:48;41.95;;;19.73;;
64907;SDS011;69061;52.236;5.188;2023-07-22T07:34:15;30.92;;;17.40;;
64907;SDS011;69061;52.236;5.188;2023-07-22T07:36:42;33.85;;;18.42;;
64907;SDS011;69061;52.236;5.188;2023-07-22T07:39:08;35.50;;;18.45;;
64907;SDS011;69061;52.236;5.188;2023-07-22T07:41:36;33.90;;;19.48;;
64907;SDS011;69061;52.236;5.188;2023-07-22T07:44:04;36.22;;;19.25;;
64907;SDS011;69061;52.236;5.188;2023-07-22T07:46:31;36.38;;;19.65;;
64907;SDS011;69061;52.236;5.188;2023-07-22T07:48:59;26.55;;;14.95;;
64907;SDS011;69061;52.236;5.188;2023-07-22T07:51:27;31.05;;;16.48;;
64907;SDS011;69061;52.236;5.188;2023-07-22T07:53:56;29.73;;;16.75;;
64907;SDS011;69061;52.236;5.188;2023-07-22T07:56:24;29.63;;;16.52;;
64907;SDS011;69061;52.236;5.188;2023-07-22T07:58:53;35.13;;;17.13;;
64907;SDS011;69061;52.236;5.188;2023-07-22T08:01:20;30.08;;;17.42;;
64907;SDS011;69061;52.236;5.188;2023-07-22T08:03:48;32.20;;;18.30;;
64907;SDS011;69061;52.236;5.188;2023-07-22T08:06:15;29.25;;;16.08;;
64907;SDS011;69061;52.236;5.188;2023-07-22T08:08:43;37.10;;;16.15;;
64907;SDS011;69061;52.236;5.188;2023-07-22T08:11:13;32.70;;;16.88;;
64907;SDS011;69061;52.236;5.188;2023-07-22T08:13:41;38.45;;;18.85;;
64907;SDS011;69061;52.236;5.188;2023-07-22T08:16:12;30.33;;;17.95;;
64907;SDS011;69061;52.236;5.188;2023-07-22T08:18:40;30.98;;;18.42;;
64907;SDS011;69061;52.236;5.188;2023-07-22T08:21:07;25.90;;;15.77;;
64907;SDS011;69061;52.236;5.188;2023-07-22T08:23:34;25.77;;;13.48;;
64907;SDS011;69061;52.236;5.188;2023-07-22T08:26:01;27.63;;;16.10;;
64907;SDS011;69061;52.236;5.188;2023-07-22T08:28:29;30.50;;;18.60;;
64907;SDS011;69061;52.236;5.188;2023-07-22T08:30:56;30.20;;;16.77;;
64907;SDS011;69061;52.236;5.188;2023-07-22T08:33:27;28.15;;;16.63;;
64907;SDS011;69061;52.236;5.188;2023-07-22T08:35:54;26.73;;;14.93;;
64907;SDS011;69061;52.236;5.188;2023-07-22T08:38:21;23.00;;;15.85;;
64907;SDS011;69061;52.236;5.188;2023-07-22T08:40:49;27.73;;;17.92;;
64907;SDS011;69061;52.236;5.188;2023-07-22T08:43:18;35.75;;;17.17;;
64907;SDS011;69061;52.236;5.188;2023-07-22T08:45:47;31.73;;;17.88;;
64907;SDS011;69061;52.236;5.188;2023-07-22T08:48:16;30.98;;;18.88;;
64907;SDS011;69061;52.236;5.188;2023-07-22T08:50:46;27.23;;;20.27;;
64907;SDS011;69061;52.236;5.188;2023-07-22T08:53:17;28.00;;;18.92;;
64907;SDS011;69061;52.236;5.188;2023-07-22T08:55:45;32.38;;;18.35;;
64907;SDS011;69061;52.236;5.188;2023-07-22T08:58:14;28.35;;;17.52;;
64907;SDS011;69061;52.236;5.188;2023-07-22T09:00:42;24.20;;;17.75;;
64907;SDS011;69061;52.236;5.188;2023-07-22T09:03:10;31.55;;;19.45;;
64907;SDS011;69061;52.236;5.188;2023-07-22T09:05:38;25.55;;;17.05;;
64907;SDS011;69061;52.236;5.188;2023-07-22T09:08:07;27.33;;;18.40;;
64907;SDS011;69061;52.236;5.188;2023-07-22T09:10:34;25.08;;;17.08;;
64907;SDS011;69061;52.236;5.188;2023-07-22T09:13:02;30.33;;;17.42;;
64907;SDS011;69061;52.236;5.188;2023-07-22T09:15:29;30.27;;;18.65;;
64907;SDS011;69061;52.236;5.188;2023-07-22T09:18:01;30.35;;;17.10;;
64907;SDS011;69061;52.236;5.188;2023-07-22T09:20:28;27.58;;;17.85;;
64907;SDS011;69061;52.236;5.188;2023-07-22T09:22:55;31.00;;;17.67;;
64907;SDS011;69061;52.236;5.188;2023-07-22T09:25:24;27.17;;;17.67;;
64907;SDS011;69061;52.236;5.188;2023-07-22T09:27:53;28.80;;;17.70;;
64907;SDS011;69061;52.236;5.188;2023-07-22T09:30:23;25.30;;;14.82;;
64907;SDS011;69061;52.236;5.188;2023-07-22T09:32:51;29.35;;;16.48;;
64907;SDS011;69061;52.236;5.188;2023-07-22T09:35:19;23.00;;;15.75;;
64907;SDS011;69061;52.236;5.188;2023-07-22T09:37:47;22.35;;;15.07;;
64907;SDS011;69061;52.236;5.188;2023-07-22T09:40:16;27.08;;;13.95;;
64907;SDS011;69061;52.236;5.188;2023-07-22T09:42:49;27.85;;;14.27;;
64907;SDS011;69061;52.236;5.188;2023-07-22T09:45:18;25.13;;;13.45;;
64907;SDS011;69061;52.236;5.188;2023-07-22T09:47:46;17.23;;;12.02;;
64907;SDS011;69061;52.236;5.188;2023-07-22T09:50:15;19.45;;;12.52;;
64907;SDS011;69061;52.236;5.188;2023-07-22T09:52:44;19.05;;;12.45;;
64907;SDS011;69061;52.236;5.188;2023-07-22T09:55:12;16.75;;;11.05;;
64907;SDS011;69061;52.236;5.188;2023-07-22T09:57:42;20.45;;;11.15;;
64907;SDS011;69061;52.236;5.188;2023-07-22T10:00:12;15.88;;;10.98;;
64907;SDS011;69061;52.236;5.188;2023-07-22T10:02:41;17.40;;;10.05;;
64907;SDS011;69061;52.236;5.188;2023-07-22T10:05:11;16.20;;;10.18;;
64907;SDS011;69061;52.236;5.188;2023-07-22T10:07:42;17.67;;;10.98;;
64907;SDS011;69061;52.236;5.188;2023-07-22T10:10:12;18.63;;;9.85;;
64907;SDS011;69061;52.236;5.188;2023-07-22T10:12:41;18.38;;;10.68;;
64907;SDS011;69061;52.236;5.188;2023-07-22T10:15:09;17.42;;;9.93;;
64907;SDS011;69061;52.236;5.188;2023-07-22T10:17:37;15.05;;;10.02;;
64907;SDS011;69061;52.236;5.188;2023-07-22T10:20:05;17.00;;;11.07;;
64907;SDS011;69061;52.236;5.188;2023-07-22T10:22:37;15.63;;;9.38;;
64907;SDS011;69061;52.236;5.188;2023-07-22T10:25:05;20.10;;;10.90;;
64907;SDS011;69061;52.236;5.188;2023-07-22T10:27:34;19.27;;;11.13;;
64907;SDS011;69061;52.236;5.188;2023-07-22T10:30:01;16.55;;;8.80;;
64907;SDS011;69061;52.236;5.188;2023-07-22T10:32:32;19.67;;;11.13;;
64907;SDS011;69061;52.236;5.188;2023-07-22T10:35:03;15.57;;;9.20;;
64907;SDS011;69061;52.236;5.188;2023-07-22T10:37:30;15.65;;;8.75;;
64907;SDS011;69061;52.236;5.188;2023-07-22T10:39:59;13.02;;;8.82;;
64907;SDS011;69061;52.236;5.188;2023-07-22T10:42:27;19.85;;;9.23;;
64907;SDS011;69061;52.236;5.188;2023-07-22T10:44:59;10.23;;;7.90;;
64907;SDS011;69061;52.236;5.188;2023-07-22T10:47:34;12.75;;;8.05;;
64907;SDS011;69061;52.236;5.188;2023-07-22T10:50:08;12.75;;;7.03;;
64907;SDS011;69061;52.236;5.188;2023-07-22T10:52:39;11.90;;;7.22;;
64907;SDS011;69061;52.236;5.188;2023-07-22T10:55:17;7.78;;;6.43;;
64907;SDS011;69061;52.236;5.188;2023-07-22T10:57:48;14.88;;;7.15;;
64907;SDS011;69061;52.236;5.188;2023-07-22T11:00:18;12.60;;;6.93;;
64907;SDS011;69061;52.236;5.188;2023-07-22T11:02:46;13.23;;;6.93;;
64907;SDS011;69061;52.236;5.188;2023-07-22T11:08:35;11.75;;;7.63;;
64907;SDS011;69061;52.236;5.188;2023-07-22T11:11:03;13.43;;;7.03;;
64907;SDS011;69061;52.236;5.188;2023-07-22T11:13:30;14.43;;;6.65;;
64907;SDS011;69061;52.236;5.188;2023-07-22T11:16:08;9.35;;;6.57;;
64907;SDS011;69061;52.236;5.188;2023-07-22T11:18:38;10.85;;;6.63;;
64907;SDS011;69061;52.236;5.188;2023-07-22T11:21:11;13.40;;;7.55;;
64907;SDS011;69061;52.236;5.188;2023-07-22T11:23:39;10.02;;;6.90;;
64907;SDS011;69061;52.236;5.188;2023-07-22T11:26:06;13.10;;;6.97;;
64907;SDS011;69061;52.236;5.188;2023-07-22T11:28:33;11.73;;;7.55;;
64907;SDS011;69061;52.236;5.188;2023-07-22T11:31:00;14.88;;;7.85;;
64907;SDS011;69061;52.236;5.188;2023-07-22T11:33:38;16.63;;;8.38;;
64907;SDS011;69061;52.236;5.188;2023-07-22T11:36:08;10.40;;;7.97;;
64907;SDS011;69061;52.236;5.188;2023-07-22T11:38:37;13.95;;;8.32;;
64907;SDS011;69061;52.236;5.188;2023-07-22T11:41:04;10.43;;;7.22;;
64907;SDS011;69061;52.236;5.188;2023-07-22T11:43:31;14.63;;;6.43;;
64907;SDS011;69061;52.236;5.188;2023-07-22T11:45:58;15.52;;;8.80;;
64907;SDS011;69061;52.236;5.188;2023-07-22T11:48:25;11.95;;;8.07;;
64907;SDS011;69061;52.236;5.188;2023-07-22T11:50:52;14.18;;;8.95;;
64907;SDS011;69061;52.236;5.188;2023-07-22T11:53:19;14.95;;;9.40;;
64907;SDS011;69061;52.236;5.188;2023-07-22T11:55:47;15.32;;;7.60;;
64907;SDS011;69061;52.236;5.188;2023-07-22T11:58:14;9.68;;;6.57;;
64907;SDS011;69061;52.236;5.188;2023-07-22T12:01:01;16.65;;;7.50;;
64907;SDS011;69061;52.236;5.188;2023-07-22T12:03:31;8.23;;;6.30;;
64907;SDS011;69061;52.236;5.188;2023-07-22T12:06:00;20.48;;;9.48;;
64907;SDS011;69061;52.236;5.188;2023-07-22T12:08:28;16.30;;;7.60;;
64907;SDS011;69061;52.236;5.188;2023-07-22T12:10:59;10.85;;;6.03;;
64907;SDS011;69061;52.236;5.188;2023-07-22T12:13:26;11.48;;;7.38;;
64907;SDS011;69061;52.236;5.188;2023-07-22T12:15:59;14.40;;;7.63;;
64907;SDS011;69061;52.236;5.188;2023-07-22T12:18:26;12.48;;;8.15;;
64907;SDS011;69061;52.236;5.188;2023-07-22T12:20:53;16.63;;;7.75;;
64907;SDS011;69061;52.236;5.188;2023-07-22T12:23:21;11.95;;;6.65;;
64907;SDS011;69061;52.236;5.188;2023-07-22T12:25:48;7.20;;;5.32;;
64907;SDS011;69061;52.236;5.188;2023-07-22T12:28:17;9.93;;;6.30;;
64907;SDS011;69061;52.236;5.188;2023-07-22T12:30:44;10.90;;;6.63;;
64907;SDS011;69061;52.236;5.188;2023-07-22T12:33:11;11.68;;;7.93;;
64907;SDS011;69061;52.236;5.188;2023-07-22T12:35:38;9.18;;;6.72;;
64907;SDS011;69061;52.236;5.188;2023-07-22T12:38:05;11.82;;;8.20;;
64907;SDS011;69061;52.236;5.188;2023-07-22T12:40:31;12.70;;;8.50;;
64907;SDS011;69061;52.236;5.188;2023-07-22T12:43:02;11.23;;;6.25;;
64907;SDS011;69061;52.236;5.188;2023-07-22T12:45:31;7.50;;;4.78;;
64907;SDS011;69061;52.236;5.188;2023-07-22T12:47:58;9.07;;;5.68;;
64907;SDS011;69061;52.236;5.188;2023-07-22T12:50:25;11.63;;;5.75;;
64907;SDS011;69061;52.236;5.188;2023-07-22T12:52:52;8.93;;;5.32;;
64907;SDS011;69061;52.236;5.188;2023-07-22T12:55:19;7.53;;;4.40;;
64907;SDS011;69061;52.236;5.188;2023-07-22T12:57:48;9.93;;;5.10;;
64907;SDS011;69061;52.236;5.188;2023-07-22T13:00:15;10.50;;;7.00;;
64907;SDS011;69061;52.236;5.188;2023-07-22T13:02:44;8.70;;;4.90;;
64907;SDS011;69061;52.236;5.188;2023-07-22T13:05:11;7.95;;;4.22;;
64907;SDS011;69061;52.236;5.188;2023-07-22T13:07:38;10.90;;;4.88;;
64907;SDS011;69061;52.236;5.188;2023-07-22T13:10:05;9.25;;;6.45;;
64907;SDS011;69061;52.236;5.188;2023-07-22T13:12:35;9.43;;;5.80;;
64907;SDS011;69061;52.236;5.188;2023-07-22T13:15:05;11.65;;;7.50;;
64907;SDS011;69061;52.236;5.188;2023-07-22T13:17:33;8.27;;;5.25;;
64907;SDS011;69061;52.236;5.188;2023-07-22T13:20:03;8.35;;;5.63;;
64907;SDS011;69061;52.236;5.188;2023-07-22T13:22:33;8.75;;;5.15;;
64907;SDS011;69061;52.236;5.188;2023-07-22T13:25:01;7.40;;;4.63;;
64907;SDS011;69061;52.236;5.188;2023-07-22T13:27:28;8.45;;;5.68;;
64907;SDS011;69061;52.236;5.188;2023-07-22T13:29:55;7.13;;;4.53;;
64907;SDS011;69061;52.236;5.188;2023-07-22T13:32:22;7.43;;;3.70;;
64907;SDS011;69061;52.236;5.188;2023-07-22T13:34:49;7.68;;;5.13;;
64907;SDS011;69061;52.236;5.188;2023-07-22T13:37:18;8.93;;;5.65;;
64907;SDS011;69061;52.236;5.188;2023-07-22T13:39:45;9.65;;;5.38;;
64907;SDS011;69061;52.236;5.188;2023-07-22T13:42:11;10.02;;;5.07;;
64907;SDS011;69061;52.236;5.188;2023-07-22T13:44:42;10.02;;;5.22;;
64907;SDS011;69061;52.236;5.188;2023-07-22T13:47:08;7.47;;;5.22;;
64907;SDS011;69061;52.236;5.188;2023-07-22T13:49:35;7.95;;;4.68;;
64907;SDS011;69061;52.236;5.188;2023-07-22T13:52:02;9.10;;;5.72;;
64907;SDS011;69061;52.236;5.188;2023-07-22T13:54:31;10.10;;;4.53;;
64907;SDS011;69061;52.236;5.188;2023-07-22T13:56:58;10.02;;;5.25;;
64907;SDS011;69061;52.236;5.188;2023-07-22T13:59:25;8.70;;;5.45;;
64907;SDS011;69061;52.236;5.188;2023-07-22T14:01:52;8.85;;;5.43;;
64907;SDS011;69061;52.236;5.188;2023-07-22T14:04:19;10.70;;;6.22;;
64907;SDS011;69061;52.236;5.188;2023-07-22T14:06:46;7.80;;;4.78;;
64907;SDS011;69061;52.236;5.188;2023-07-22T14:09:13;8.27;;;5.10;;
64907;SDS011;69061;52.236;5.188;2023-07-22T14:11:41;9.00;;;4.72;;
64907;SDS011;69061;52.236;5.188;2023-07-22T14:14:08;7.68;;;4.10;;
64907;SDS011;69061;52.236;5.188;2023-07-22T14:16:35;12.27;;;5.50;;
64907;SDS011;69061;52.236;5.188;2023-07-22T14:19:02;5.82;;;4.03;;
64907;SDS011;69061;52.236;5.188;2023-07-22T14:21:28;10.18;;;6.32;;
64907;SDS011;69061;52.236;5.188;2023-07-22T14:23:55;10.65;;;5.15;;
64907;SDS011;69061;52.236;5.188;2023-07-22T14:26:22;9.85;;;5.03;;
64907;SDS011;69061;52.236;5.188;2023-07-22T14:28:50;9.00;;;5.47;;
64907;SDS011;69061;52.236;5.188;2023-07-22T14:31:17;9.77;;;4.32;;
64907;SDS011;69061;52.236;5.188;2023-07-22T14:33:45;5.20;;;4.15;;